VA35 weather

Fort Lee Nr 1 /Hqs/ Heliport
Fort Lee, Virginia, United States

Public forecast

Using degrees Fahrenheit for public forecast. Weather courtesy of forecast.io.

Closest aviation weather report (METAR) to Fort Lee Nr 1 /Hqs/ Heliport

Closest report is Dinwiddie County Airport, 8.6 nm (15.9 km) WSW. Retrieved 2020/07/04 17:35 UTC (10 minutes ago):

KPTB 041735Z AUTO 06004KT 10SM SCT049 SCT060 32/19 A2993 RMK AO2 T03230189

Closest aviation forecast (TAF) to Fort Lee Nr 1 /Hqs/ Heliport

Closest forecast is Richmond International Airport, 15.9 nm (29.4 km) N. Retrieved 2020/07/04 12:22 UTC (5 hours ago):

TAF KRIC 041120Z 0412/0512 35007KT P6SM FEW090 FM041700 02008KT P6SM VCSH SCT040 FM042000 04008KT P6SM VCSH SCT050 FM050100 10005KT P6SM SCT100 FM050400 14004KT P6SM BKN100 FM050800 VRB02KT 4SM BR BKN010